sensor_id;sensor_type;location;lat;lon;timestamp;temperature;humidity
43414;DHT22;29013;49.676;8.606;2022-11-15T00:05:22;13.0;99.9
43414;DHT22;29013;49.676;8.606;2022-11-15T00:10:59;13.0;99.9
43414;DHT22;29013;49.676;8.606;2022-11-15T00:16:31;13.2;99.9
43414;DHT22;29013;49.676;8.606;2022-11-15T00:22:00;13.2;99.9
43414;DHT22;29013;49.676;8.606;2022-11-15T00:33:55;13.3;99.9
43414;DHT22;29013;49.676;8.606;2022-11-15T00:51:50;13.4;99.9
43414;DHT22;29013;49.676;8.606;2022-11-15T00:57:31;13.5;99.9
43414;DHT22;29013;49.676;8.606;2022-11-15T01:04:07;13.4;99.9
43414;DHT22;29013;49.676;8.606;2022-11-15T01:10:08;13.5;99.9
43414;DHT22;29013;49.676;8.606;2022-11-15T01:16:05;13.4;99.9
43414;DHT22;29013;49.676;8.606;2022-11-15T01:27:26;13.3;99.9
43414;DHT22;29013;49.676;8.606;2022-11-15T01:32:53;13.1;99.9
43414;DHT22;29013;49.676;8.606;2022-11-15T01:38:44;12.9;99.9
43414;DHT22;29013;49.676;8.606;2022-11-15T01:56:19;13.2;99.9
43414;DHT22;29013;49.676;8.606;2022-11-15T02:01:51;13.1;99.9
43414;DHT22;29013;49.676;8.606;2022-11-15T02:07:26;13.0;99.9
43414;DHT22;29013;49.676;8.606;2022-11-15T02:12:50;13.0;99.9
43414;DHT22;29013;49.676;8.606;2022-11-15T02:18:22;13.0;99.9
43414;DHT22;29013;49.676;8.606;2022-11-15T02:30:25;13.1;99.9
43414;DHT22;29013;49.676;8.606;2022-11-15T02:35:58;13.0;99.9
43414;DHT22;29013;49.676;8.606;2022-11-15T02:41:25;12.8;99.9
43414;DHT22;29013;49.676;8.606;2022-11-15T02:52:47;12.6;99.9
43414;DHT22;29013;49.676;8.606;2022-11-15T02:58:35;12.5;99.9
43414;DHT22;29013;49.676;8.606;2022-11-15T03:04:06;12.3;99.9
43414;DHT22;29013;49.676;8.606;2022-11-15T03:09:38;12.3;99.9
43414;DHT22;29013;49.676;8.606;2022-11-15T03:15:09;12.4;99.9
43414;DHT22;29013;49.676;8.606;2022-11-15T03:20:39;12.3;99.9
43414;DHT22;29013;49.676;8.606;2022-11-15T03:26:05;12.3;99.9
43414;DHT22;29013;49.676;8.606;2022-11-15T03:31:31;12.3;99.9
43414;DHT22;29013;49.676;8.606;2022-11-15T03:36:57;12.2;99.9
43414;DHT22;29013;49.676;8.606;2022-11-15T03:42:25;12.1;99.9
43414;DHT22;29013;49.676;8.606;2022-11-15T03:47:51;12.1;99.9
43414;DHT22;29013;49.676;8.606;2022-11-15T03:59:03;12.2;99.9
43414;DHT22;29013;49.676;8.606;2022-11-15T04:05:03;12.2;99.9
43414;DHT22;29013;49.676;8.606;2022-11-15T04:10:34;12.3;99.9
43414;DHT22;29013;49.676;8.606;2022-11-15T04:16:12;12.2;99.9
43414;DHT22;29013;49.676;8.606;2022-11-15T04:21:47;12.2;99.9
43414;DHT22;29013;49.676;8.606;2022-11-15T04:27:18;12.1;99.9
43414;DHT22;29013;49.676;8.606;2022-11-15T04:32:54;12.1;99.9
43414;DHT22;29013;49.676;8.606;2022-11-15T04:38:23;12.1;99.9
43414;DHT22;29013;49.676;8.606;2022-11-15T04:44:11;12.2;99.9
43414;DHT22;29013;49.676;8.606;2022-11-15T04:49:36;12.2;99.9
43414;DHT22;29013;49.676;8.606;2022-11-15T04:55:06;12.2;99.9
43414;DHT22;29013;49.676;8.606;2022-11-15T05:00:32;12.3;99.9
43414;DHT22;29013;49.676;8.606;2022-11-15T05:05:57;12.2;99.9
43414;DHT22;29013;49.676;8.606;2022-11-15T05:11:31;12.1;99.9
43414;DHT22;29013;49.676;8.606;2022-11-15T05:16:56;12.1;99.9
43414;DHT22;29013;49.676;8.606;2022-11-15T05:37:35;15.5;99.9
43414;DHT22;29013;49.676;8.606;2022-11-15T05:43:00;14.3;99.9
43414;DHT22;29013;49.676;8.606;2022-11-15T05:48:22;13.3;99.9
43414;DHT22;29013;49.676;8.606;2022-11-15T05:53:49;12.6;99.9
43414;DHT22;29013;49.676;8.606;2022-11-15T05:59:18;12.4;99.9
43414;DHT22;29013;49.676;8.606;2022-11-15T06:04:43;12.3;99.9
43414;DHT22;29013;49.676;8.606;2022-11-15T06:10:11;12.2;99.9
43414;DHT22;29013;49.676;8.606;2022-11-15T06:15:55;12.1;99.9
43414;DHT22;29013;49.676;8.606;2022-11-15T06:21:19;12.2;99.9
43414;DHT22;29013;49.676;8.606;2022-11-15T06:26:46;12.1;99.9
43414;DHT22;29013;49.676;8.606;2022-11-15T06:32:13;12.0;99.9
43414;DHT22;29013;49.676;8.606;2022-11-15T06:37:37;12.0;99.9
43414;DHT22;29013;49.676;8.606;2022-11-15T06:43:02;12.0;99.9
43414;DHT22;29013;49.676;8.606;2022-11-15T06:48:28;12.0;99.9
43414;DHT22;29013;49.676;8.606;2022-11-15T06:53:50;11.9;99.9
43414;DHT22;29013;49.676;8.606;2022-11-15T06:59:17;11.9;99.9
43414;DHT22;29013;49.676;8.606;2022-11-15T07:04:43;11.9;99.9
43414;DHT22;29013;49.676;8.606;2022-11-15T07:10:11;11.9;99.9
43414;DHT22;29013;49.676;8.606;2022-11-15T07:15:32;12.0;99.9
43414;DHT22;29013;49.676;8.606;2022-11-15T07:20:59;12.0;99.9
43414;DHT22;29013;49.676;8.606;2022-11-15T07:26:24;12.1;99.9
43414;DHT22;29013;49.676;8.606;2022-11-15T07:31:53;12.1;99.9
43414;DHT22;29013;49.676;8.606;2022-11-15T07:37:18;12.2;99.9
43414;DHT22;29013;49.676;8.606;2022-11-15T07:42:40;12.2;99.9
43414;DHT22;29013;49.676;8.606;2022-11-15T07:48:08;12.2;99.9
43414;DHT22;29013;49.676;8.606;2022-11-15T07:53:30;12.3;99.9
43414;DHT22;29013;49.676;8.606;2022-11-15T07:58:53;12.3;99.9
43414;DHT22;29013;49.676;8.606;2022-11-15T08:04:21;12.4;99.9
43414;DHT22;29013;49.676;8.606;2022-11-15T08:09:48;12.4;99.9
43414;DHT22;29013;49.676;8.606;2022-11-15T08:15:12;12.5;99.9
43414;DHT22;29013;49.676;8.606;2022-11-15T08:20:33;12.5;99.9
43414;DHT22;29013;49.676;8.606;2022-11-15T08:26:00;12.6;99.9
43414;DHT22;29013;49.676;8.606;2022-11-15T08:31:21;12.6;99.9
43414;DHT22;29013;49.676;8.606;2022-11-15T08:36:45;12.6;99.9
43414;DHT22;29013;49.676;8.606;2022-11-15T08:42:09;12.6;99.9
43414;DHT22;29013;49.676;8.606;2022-11-15T08:47:37;12.6;99.9
43414;DHT22;29013;49.676;8.606;2022-11-15T08:53:07;12.6;99.9
43414;DHT22;29013;49.676;8.606;2022-11-15T08:58:33;12.7;99.9
43414;DHT22;29013;49.676;8.606;2022-11-15T09:03:55;12.7;99.9
43414;DHT22;29013;49.676;8.606;2022-11-15T09:09:20;12.8;99.9
43414;DHT22;29013;49.676;8.606;2022-11-15T09:14:48;12.9;99.9
43414;DHT22;29013;49.676;8.606;2022-11-15T09:20:16;12.9;99.9
43414;DHT22;29013;49.676;8.606;2022-11-15T09:25:40;12.9;99.9
43414;DHT22;29013;49.676;8.606;2022-11-15T09:31:08;13.0;99.9
43414;DHT22;29013;49.676;8.606;2022-11-15T09:36:34;13.0;99.9
43414;DHT22;29013;49.676;8.606;2022-11-15T09:42:01;13.0;99.9
43414;DHT22;29013;49.676;8.606;2022-11-15T09:47:41;13.1;99.9
43414;DHT22;29013;49.676;8.606;2022-11-15T09:53:09;13.3;99.9
43414;DHT22;29013;49.676;8.606;2022-11-15T09:58:35;13.3;99.9
43414;DHT22;29013;49.676;8.606;2022-11-15T10:03:56;13.3;99.9
43414;DHT22;29013;49.676;8.606;2022-11-15T10:09:23;13.4;99.9
43414;DHT22;29013;49.676;8.606;2022-11-15T10:14:46;13.5;99.9
43414;DHT22;29013;49.676;8.606;2022-11-15T10:20:15;13.7;99.9
43414;DHT22;29013;49.676;8.606;2022-11-15T10:25:35;13.7;99.9
43414;DHT22;29013;49.676;8.606;2022-11-15T10:31:02;13.8;99.9
43414;DHT22;29013;49.676;8.606;2022-11-15T10:36:27;13.9;99.9
43414;DHT22;29013;49.676;8.606;2022-11-15T10:41:53;14.0;99.9
43414;DHT22;29013;49.676;8.606;2022-11-15T10:47:26;13.9;99.9
43414;DHT22;29013;49.676;8.606;2022-11-15T10:52:53;14.0;99.9
43414;DHT22;29013;49.676;8.606;2022-11-15T10:58:29;14.1;99.9
43414;DHT22;29013;49.676;8.606;2022-11-15T11:04:02;14.2;99.9
43414;DHT22;29013;49.676;8.606;2022-11-15T11:09:31;14.4;99.9
43414;DHT22;29013;49.676;8.606;2022-11-15T11:14:59;14.5;99.9
43414;DHT22;29013;49.676;8.606;2022-11-15T11:20:29;14.7;99.9
43414;DHT22;29013;49.676;8.606;2022-11-15T11:25:51;14.7;99.9
43414;DHT22;29013;49.676;8.606;2022-11-15T11:31:20;14.7;99.9
43414;DHT22;29013;49.676;8.606;2022-11-15T11:36:42;14.8;99.9
43414;DHT22;29013;49.676;8.606;2022-11-15T11:42:09;14.7;99.9
43414;DHT22;29013;49.676;8.606;2022-11-15T11:47:32;14.9;99.9
43414;DHT22;29013;49.676;8.606;2022-11-15T11:53:02;14.9;99.9
43414;DHT22;29013;49.676;8.606;2022-11-15T11:58:29;14.9;99.9
43414;DHT22;29013;49.676;8.606;2022-11-15T12:03:57;15.0;99.9
43414;DHT22;29013;49.676;8.606;2022-11-15T12:09:23;15.0;99.9
43414;DHT22;29013;49.676;8.606;2022-11-15T12:14:49;15.0;99.9
43414;DHT22;29013;49.676;8.606;2022-11-15T12:20:19;15.0;99.9
43414;DHT22;29013;49.676;8.606;2022-11-15T12:25:45;15.0;99.9
43414;DHT22;29013;49.676;8.606;2022-11-15T12:31:11;15.0;99.9
43414;DHT22;29013;49.676;8.606;2022-11-15T12:36:39;15.0;99.9
43414;DHT22;29013;49.676;8.606;2022-11-15T12:47:51;15.1;99.9
43414;DHT22;29013;49.676;8.606;2022-11-15T12:53:27;15.1;99.9
43414;DHT22;29013;49.676;8.606;2022-11-15T12:58:57;15.1;99.9
43414;DHT22;29013;49.676;8.606;2022-11-15T13:04:27;15.0;99.9
43414;DHT22;29013;49.676;8.606;2022-11-15T13:09:57;15.0;99.9
43414;DHT22;29013;49.676;8.606;2022-11-15T13:15:54;14.9;99.9
43414;DHT22;29013;49.676;8.606;2022-11-15T13:21:24;15.0;99.9
43414;DHT22;29013;49.676;8.606;2022-11-15T13:26:52;15.0;99.9
43414;DHT22;29013;49.676;8.606;2022-11-15T13:32:17;14.9;99.9
43414;DHT22;29013;49.676;8.606;2022-11-15T13:37:46;14.9;99.9
43414;DHT22;29013;49.676;8.606;2022-11-15T13:43:28;14.9;99.9
43414;DHT22;29013;49.676;8.606;2022-11-15T13:48:46;14.9;99.9
43414;DHT22;29013;49.676;8.606;2022-11-15T13:54:17;14.9;99.9
43414;DHT22;29013;49.676;8.606;2022-11-15T13:59:48;14.9;99.9
43414;DHT22;29013;49.676;8.606;2022-11-15T14:05:15;14.9;99.9
43414;DHT22;29013;49.676;8.606;2022-11-15T14:10:40;14.9;99.9
43414;DHT22;29013;49.676;8.606;2022-11-15T14:16:21;14.9;99.9
43414;DHT22;29013;49.676;8.606;2022-11-15T14:22:11;14.9;99.9
43414;DHT22;29013;49.676;8.606;2022-11-15T14:27:32;14.9;99.9
43414;DHT22;29013;49.676;8.606;2022-11-15T14:32:58;14.8;99.9
43414;DHT22;29013;49.676;8.606;2022-11-15T14:38:20;14.7;99.9
43414;DHT22;29013;49.676;8.606;2022-11-15T14:43:47;14.7;99.9
43414;DHT22;29013;49.676;8.606;2022-11-15T14:49:13;14.6;99.9
43414;DHT22;29013;49.676;8.606;2022-11-15T14:54:34;14.6;99.9
43414;DHT22;29013;49.676;8.606;2022-11-15T15:00:03;14.6;99.9
43414;DHT22;29013;49.676;8.606;2022-11-15T15:05:29;14.5;99.9
43414;DHT22;29013;49.676;8.606;2022-11-15T15:10:48;14.5;99.9
43414;DHT22;29013;49.676;8.606;2022-11-15T15:16:12;14.5;99.9
43414;DHT22;29013;49.676;8.606;2022-11-15T15:21:38;14.5;99.9
43414;DHT22;29013;49.676;8.606;2022-11-15T15:27:05;14.4;99.9
43414;DHT22;29013;49.676;8.606;2022-11-15T15:32:32;14.4;99.9
43414;DHT22;29013;49.676;8.606;2022-11-15T15:37:58;14.4;99.9
43414;DHT22;29013;49.676;8.606;2022-11-15T15:43:25;14.4;99.9
43414;DHT22;29013;49.676;8.606;2022-11-15T15:48:48;14.4;99.9
43414;DHT22;29013;49.676;8.606;2022-11-15T15:54:09;14.5;99.9
43414;DHT22;29013;49.676;8.606;2022-11-15T15:59:31;14.5;99.9
43414;DHT22;29013;49.676;8.606;2022-11-15T16:04:52;14.5;99.9
43414;DHT22;29013;49.676;8.606;2022-11-15T16:10:19;14.5;99.9
43414;DHT22;29013;49.676;8.606;2022-11-15T16:15:44;14.5;99.9
43414;DHT22;29013;49.676;8.606;2022-11-15T16:21:11;14.5;99.9
43414;DHT22;29013;49.676;8.606;2022-11-15T16:26:38;14.5;99.9
43414;DHT22;29013;49.676;8.606;2022-11-15T16:32:04;14.5;99.9
43414;DHT22;29013;49.676;8.606;2022-11-15T16:37:31;14.5;99.9
43414;DHT22;29013;49.676;8.606;2022-11-15T16:42:57;14.4;99.9
43414;DHT22;29013;49.676;8.606;2022-11-15T16:48:24;14.4;99.9
43414;DHT22;29013;49.676;8.606;2022-11-15T16:53:49;14.4;99.9
43414;DHT22;29013;49.676;8.606;2022-11-15T16:59:15;14.5;99.9
43414;DHT22;29013;49.676;8.606;2022-11-15T17:04:38;14.5;99.9
43414;DHT22;29013;49.676;8.606;2022-11-15T17:10:06;14.4;99.9
43414;DHT22;29013;49.676;8.606;2022-11-15T17:15:32;14.4;99.9
43414;DHT22;29013;49.676;8.606;2022-11-15T17:20:55;14.3;99.9
43414;DHT22;29013;49.676;8.606;2022-11-15T17:26:22;14.3;99.9
43414;DHT22;29013;49.676;8.606;2022-11-15T17:31:46;14.3;99.9
43414;DHT22;29013;49.676;8.606;2022-11-15T17:37:13;14.4;99.9
43414;DHT22;29013;49.676;8.606;2022-11-15T17:42:40;14.4;99.9
43414;DHT22;29013;49.676;8.606;2022-11-15T17:48:06;14.5;99.9
43414;DHT22;29013;49.676;8.606;2022-11-15T17:53:35;14.5;99.9
43414;DHT22;29013;49.676;8.606;2022-11-15T17:58:59;14.5;99.9
43414;DHT22;29013;49.676;8.606;2022-11-15T18:04:27;14.6;99.9
43414;DHT22;29013;49.676;8.606;2022-11-15T18:09:50;14.5;99.9
43414;DHT22;29013;49.676;8.606;2022-11-15T18:15:17;14.5;99.9
43414;DHT22;29013;49.676;8.606;2022-11-15T18:20:42;14.5;99.9
43414;DHT22;29013;49.676;8.606;2022-11-15T18:26:10;14.5;99.9
43414;DHT22;29013;49.676;8.606;2022-11-15T18:31:31;14.4;99.9
43414;DHT22;29013;49.676;8.606;2022-11-15T18:36:57;14.3;99.9
43414;DHT22;29013;49.676;8.606;2022-11-15T18:42:24;14.1;99.9
43414;DHT22;29013;49.676;8.606;2022-11-15T18:47:51;14.0;99.9
43414;DHT22;29013;49.676;8.606;2022-11-15T18:53:19;13.9;99.9
43414;DHT22;29013;49.676;8.606;2022-11-15T18:58:41;13.8;99.9
43414;DHT22;29013;49.676;8.606;2022-11-15T19:04:06;13.7;99.9
43414;DHT22;29013;49.676;8.606;2022-11-15T19:09:27;13.7;99.9
43414;DHT22;29013;49.676;8.606;2022-11-15T19:14:48;13.6;99.9
43414;DHT22;29013;49.676;8.606;2022-11-15T19:20:15;13.6;99.9
43414;DHT22;29013;49.676;8.606;2022-11-15T19:25:42;13.5;99.9
43414;DHT22;29013;49.676;8.606;2022-11-15T19:31:09;13.5;99.9
43414;DHT22;29013;49.676;8.606;2022-11-15T19:36:34;13.4;99.9
43414;DHT22;29013;49.676;8.606;2022-11-15T19:41:58;13.4;99.9
43414;DHT22;29013;49.676;8.606;2022-11-15T19:47:20;13.3;99.9
43414;DHT22;29013;49.676;8.606;2022-11-15T19:52:46;13.2;99.9
43414;DHT22;29013;49.676;8.606;2022-11-15T19:58:07;13.2;99.9
43414;DHT22;29013;49.676;8.606;2022-11-15T20:03:34;13.2;99.9
43414;DHT22;29013;49.676;8.606;2022-11-15T20:08:58;13.2;99.9
43414;DHT22;29013;49.676;8.606;2022-11-15T20:14:23;13.2;99.9
43414;DHT22;29013;49.676;8.606;2022-11-15T20:19:49;13.2;99.9
43414;DHT22;29013;49.676;8.606;2022-11-15T20:25:17;13.1;99.9
43414;DHT22;29013;49.676;8.606;2022-11-15T20:30:42;13.1;99.9
43414;DHT22;29013;49.676;8.606;2022-11-15T20:36:09;13.2;99.9
43414;DHT22;29013;49.676;8.606;2022-11-15T20:41:29;13.2;99.9
43414;DHT22;29013;49.676;8.606;2022-11-15T20:46:54;13.1;99.9
43414;DHT22;29013;49.676;8.606;2022-11-15T20:52:20;13.1;99.9
43414;DHT22;29013;49.676;8.606;2022-11-15T20:57:47;13.0;99.9
43414;DHT22;29013;49.676;8.606;2022-11-15T21:03:14;12.9;99.9
43414;DHT22;29013;49.676;8.606;2022-11-15T21:08:41;12.9;99.9
43414;DHT22;29013;49.676;8.606;2022-11-15T21:14:07;12.9;99.9
43414;DHT22;29013;49.676;8.606;2022-11-15T21:19:34;12.9;99.9
43414;DHT22;29013;49.676;8.606;2022-11-15T21:25:00;12.8;99.9
43414;DHT22;29013;49.676;8.606;2022-11-15T21:30:27;12.8;99.9
43414;DHT22;29013;49.676;8.606;2022-11-15T21:35:55;12.7;99.9
43414;DHT22;29013;49.676;8.606;2022-11-15T21:41:22;12.7;99.9
43414;DHT22;29013;49.676;8.606;2022-11-15T21:47:00;12.7;99.9
43414;DHT22;29013;49.676;8.606;2022-11-15T21:52:26;12.8;99.9
43414;DHT22;29013;49.676;8.606;2022-11-15T21:57:51;12.8;99.9
43414;DHT22;29013;49.676;8.606;2022-11-15T22:03:17;12.7;99.9
43414;DHT22;29013;49.676;8.606;2022-11-15T22:08:42;12.6;99.9
43414;DHT22;29013;49.676;8.606;2022-11-15T22:14:10;12.6;99.9
43414;DHT22;29013;49.676;8.606;2022-11-15T22:19:37;12.6;99.9
43414;DHT22;29013;49.676;8.606;2022-11-15T22:24:58;12.6;99.9
43414;DHT22;29013;49.676;8.606;2022-11-15T22:30:21;12.6;99.9
43414;DHT22;29013;49.676;8.606;2022-11-15T22:35:44;12.6;99.9
43414;DHT22;29013;49.676;8.606;2022-11-15T22:41:08;12.5;99.9
43414;DHT22;29013;49.676;8.606;2022-11-15T22:46:35;12.5;99.9
43414;DHT22;29013;49.676;8.606;2022-11-15T22:51:59;12.5;99.9
43414;DHT22;29013;49.676;8.606;2022-11-15T22:57:25;12.5;99.9
43414;DHT22;29013;49.676;8.606;2022-11-15T23:02:51;12.5;99.9
43414;DHT22;29013;49.676;8.606;2022-11-15T23:08:16;12.6;99.9
43414;DHT22;29013;49.676;8.606;2022-11-15T23:13:42;12.5;99.9
43414;DHT22;29013;49.676;8.606;2022-11-15T23:19:09;12.5;99.9
43414;DHT22;29013;49.676;8.606;2022-11-15T23:24:36;12.4;99.9
43414;DHT22;29013;49.676;8.606;2022-11-15T23:30:00;12.5;99.9
43414;DHT22;29013;49.676;8.606;2022-11-15T23:35:23;12.5;99.9
43414;DHT22;29013;49.676;8.606;2022-11-15T23:40:53;12.4;99.9
43414;DHT22;29013;49.676;8.606;2022-11-15T23:46:17;12.5;99.9
43414;DHT22;29013;49.676;8.606;2022-11-15T23:51:45;12.4;99.9
43414;DHT22;29013;49.676;8.606;2022-11-15T23:57:13;12.4;99.9
